Time;durP1;ratioP1;P1;durP2;ratioP2;P2;SDS_P1;SDS_P2;PMS_P1;PMS_P2;Temp;Humidity;BMP_temperature;BMP_pressure;BME280_temperature;BME280_humidity;BME280_pressure;Samples;Min_cycle;Max_cycle;Signal;HPM_P1;HPM_P2
2023/07/03 00:00:12;;;;;;;3.07;1.77;;;27.70;43.40;;;;;;4999192;28;88507;-51
2023/07/03 00:02:40;;;;;;;3.87;2.13;;;27.70;43.40;;;;;;4994827;28;88122;-50
2023/07/03 00:05:09;;;;;;;2.50;1.30;;;27.70;43.40;;;;;;5001495;28;87770;-50
2023/07/03 00:07:38;;;;;;;3.43;2.20;;;27.70;43.50;;;;;;4992132;28;87688;-51
2023/07/03 00:10:08;;;;;;;3.70;1.60;;;27.70;43.50;;;;;;4987058;28;89675;-51
2023/07/03 00:12:36;;;;;;;3.87;1.33;;;27.70;43.50;;;;;;4997642;28;88557;-50
2023/07/03 00:15:05;;;;;;;5.87;2.20;;;27.70;43.50;;;;;;4982117;28;88094;-51
2023/07/03 00:17:37;;;;;;;2.67;1.77;;;27.70;43.60;;;;;;4988327;28;88423;-50
2023/07/03 00:20:06;;;;;;;5.03;1.90;;;27.70;43.50;;;;;;5001500;28;88574;-51
2023/07/03 00:22:35;;;;;;;3.70;2.10;;;27.70;43.60;;;;;;4990146;28;87939;-51
2023/07/03 00:25:03;;;;;;;3.17;1.80;;;27.70;43.60;;;;;;4991578;28;89929;-51
2023/07/03 00:27:31;;;;;;;4.47;2.10;;;27.70;43.60;;;;;;5001105;28;87552;-50
2023/07/03 00:30:00;;;;;;;5.00;1.90;;;27.70;43.70;;;;;;5001412;28;88588;-51
2023/07/03 00:32:28;;;;;;;3.13;1.40;;;27.70;43.60;;;;;;4989609;28;89876;-51
2023/07/03 00:34:58;;;;;;;3.03;1.47;;;27.70;43.70;;;;;;4998701;28;88783;-50
2023/07/03 00:37:27;;;;;;;4.10;1.60;;;27.40;43.50;;;;;;5000775;28;87715;-50
2023/07/03 00:39:56;;;;;;;2.70;1.27;;;27.60;43.60;;;;;;5000470;28;88618;-50
2023/07/03 00:42:27;;;;;;;2.37;1.30;;;27.60;43.60;;;;;;5001154;28;88941;-51
2023/07/03 00:44:55;;;;;;;3.77;1.47;;;27.60;44.30;;;;;;5000562;28;87690;-51
2023/07/03 00:47:24;;;;;;;4.53;1.67;;;27.60;43.70;;;;;;5000177;28;87890;-50
2023/07/03 00:49:52;;;;;;;2.43;1.43;;;27.60;43.70;;;;;;5000751;28;88647;-50
2023/07/03 00:52:22;;;;;;;3.77;1.63;;;27.60;43.70;;;;;;4992763;28;88958;-50
2023/07/03 00:54:52;;;;;;;2.70;1.57;;;27.60;43.70;;;;;;5000308;28;88790;-51
2023/07/03 00:57:23;;;;;;;3.60;1.50;;;27.60;43.80;;;;;;4984489;28;87634;-51
2023/07/03 00:59:51;;;;;;;3.77;1.30;;;27.60;43.80;;;;;;5000977;28;88569;-50
2023/07/03 01:02:23;;;;;;;4.20;1.80;;;27.60;43.80;;;;;;5000091;28;87722;-50
2023/07/03 01:04:54;;;;;;;4.20;1.27;;;27.60;43.80;;;;;;5001154;28;87357;-51
2023/07/03 01:07:26;;;;;;;2.63;1.10;;;27.60;43.90;;;;;;4997881;28;88856;-50
2023/07/03 01:10:01;;;;;;;2.63;1.40;;;27.60;43.90;;;;;;4995120;28;89690;-50
2023/07/03 01:12:31;;;;;;;1.40;0.90;;;27.60;43.90;;;;;;4999878;28;90004;-51
2023/07/03 01:15:01;;;;;;;2.53;1.63;;;27.60;43.90;;;;;;5000182;28;88986;-51
2023/07/03 01:17:29;;;;;;;2.30;1.17;;;27.60;43.90;;;;;;5000339;28;87827;-51
2023/07/03 01:19:58;;;;;;;3.33;1.20;;;27.60;43.90;;;;;;5000304;28;88915;-50
2023/07/03 01:22:29;;;;;;;4.73;1.20;;;27.60;44.60;;;;;;4998852;28;87727;-51
2023/07/03 01:25:00;;;;;;;2.47;1.10;;;27.60;44.00;;;;;;4980698;28;88479;-51
2023/07/03 01:27:32;;;;;;;1.83;1.00;;;27.60;44.00;;;;;;4980846;28;87623;-51
2023/07/03 01:30:01;;;;;;;5.17;1.33;;;27.60;43.90;;;;;;4980965;28;88855;-51
2023/07/03 01:32:30;;;;;;;3.47;1.60;;;27.60;43.90;;;;;;4980672;28;88568;-51
2023/07/03 01:34:58;;;;;;;6.30;1.20;;;27.60;44.00;;;;;;4980728;28;87336;-51
2023/07/03 01:37:27;;;;;;;2.93;1.37;;;27.60;43.90;;;;;;4990011;28;87966;-50
2023/07/03 01:39:56;;;;;;;1.80;1.23;;;27.60;44.00;;;;;;4980515;28;88604;-51
2023/07/03 01:42:26;;;;;;;2.17;1.00;;;27.60;44.00;;;;;;4980401;28;88229;-50
2023/07/03 01:44:55;;;;;;;2.43;1.20;;;27.60;44.00;;;;;;4980651;28;87399;-50
2023/07/03 01:47:23;;;;;;;2.97;1.20;;;27.60;44.00;;;;;;4980846;28;87311;-50
2023/07/03 01:49:52;;;;;;;0.87;0.70;;;27.60;44.00;;;;;;4980536;28;88636;-50
2023/07/03 01:52:22;;;;;;;1.70;0.60;;;27.60;44.00;;;;;;4986387;28;88152;-50
2023/07/03 01:54:53;;;;;;;2.13;0.83;;;27.60;44.00;;;;;;5000348;28;87743;-50
2023/07/03 01:57:24;;;;;;;2.50;1.27;;;27.60;44.00;;;;;;4995880;28;87677;-51
2023/07/03 01:59:53;;;;;;;3.23;1.53;;;27.60;44.00;;;;;;4980292;28;88754;-50
2023/07/03 02:02:24;;;;;;;6.20;1.20;;;27.60;44.00;;;;;;4980004;28;90325;-50
2023/07/03 02:04:58;;;;;;;0.93;0.77;;;27.60;44.10;;;;;;4980032;28;89825;-50
2023/07/03 02:07:27;;;;;;;1.50;1.23;;;27.50;44.00;;;;;;4986001;28;87603;-50
2023/07/03 02:09:55;;;;;;;3.97;1.27;;;27.60;44.10;;;;;;4999984;28;88645;-51
2023/07/03 02:12:24;;;;;;;1.73;1.10;;;27.50;44.00;;;;;;4999827;28;88003;-51
2023/07/03 02:14:53;;;;;;;3.23;1.33;;;27.60;44.10;;;;;;4984205;28;88876;-50
2023/07/03 02:17:21;;;;;;;1.20;1.00;;;27.50;44.10;;;;;;4980237;28;89139;-51
2023/07/03 02:19:50;;;;;;;0.70;0.60;;;27.50;44.10;;;;;;4980174;28;87327;-51
2023/07/03 02:22:18;;;;;;;1.27;0.87;;;27.60;44.10;;;;;;4985260;28;88295;-50
2023/07/03 02:24:47;;;;;;;3.47;1.13;;;27.50;44.10;;;;;;4991343;28;87634;-50
2023/07/03 02:27:15;;;;;;;4.93;1.47;;;27.50;44.10;;;;;;4979935;28;87846;-50
2023/07/03 02:29:43;;;;;;;3.47;1.53;;;27.50;44.70;;;;;;4982792;28;87577;-51
2023/07/03 02:32:13;;;;;;;2.63;1.40;;;27.50;44.10;;;;;;4984370;28;88007;-50
2023/07/03 02:34:41;;;;;;;5.37;1.43;;;27.50;44.20;;;;;;4991332;28;88799;-50
2023/07/03 02:37:11;;;;;;;2.77;1.67;;;27.50;44.10;;;;;;4983864;28;87326;-51
2023/07/03 02:39:39;;;;;;;4.10;1.83;;;27.50;44.10;;;;;;4983360;28;89694;-51
2023/07/03 02:42:08;;;;;;;1.70;1.33;;;27.50;44.10;;;;;;4983297;28;88079;-51
2023/07/03 02:44:36;;;;;;;1.83;1.30;;;27.50;44.20;;;;;;4982496;28;87858;-51
2023/07/03 02:47:05;;;;;;;1.90;1.37;;;27.50;44.10;;;;;;4980833;28;87724;-51
2023/07/03 02:49:35;;;;;;;3.33;1.60;;;27.50;44.10;;;;;;4979978;28;88476;-51
2023/07/03 02:52:04;;;;;;;1.47;1.10;;;27.50;44.10;;;;;;4981304;28;88969;-51
2023/07/03 02:54:33;;;;;;;3.30;1.70;;;27.50;44.10;;;;;;4999870;28;89950;-50
2023/07/03 02:57:01;;;;;;;4.47;1.80;;;27.50;44.10;;;;;;4999653;28;87463;-51
2023/07/03 02:59:30;;;;;;;3.33;1.60;;;27.50;44.10;;;;;;4999563;28;89941;-50
2023/07/03 03:01:58;;;;;;;2.43;1.27;;;27.50;44.10;;;;;;5000008;28;88472;-50
2023/07/03 03:04:26;;;;;;;2.23;1.53;;;27.50;44.10;;;;;;4998995;28;87854;-50
2023/07/03 03:06:57;;;;;;;4.03;1.80;;;27.50;44.10;;;;;;4997720;28;87633;-50
2023/07/03 03:09:26;;;;;;;1.50;1.40;;;27.40;44.00;;;;;;4998226;28;89662;-51
2023/07/03 03:11:54;;;;;;;1.53;1.23;;;27.50;44.10;;;;;;4999000;28;87517;-51
2023/07/03 03:14:22;;;;;;;1.47;1.23;;;27.50;44.00;;;;;;4995279;28;87966;-50
2023/07/03 03:16:50;;;;;;;2.80;1.33;;;27.50;44.00;;;;;;4980095;28;88160;-50
2023/07/03 03:19:19;;;;;;;1.87;1.30;;;27.40;43.90;;;;;;4979399;28;88834;-51
2023/07/03 03:21:49;;;;;;;3.60;1.33;;;27.50;43.90;;;;;;4979475;28;87926;-51
2023/07/03 03:24:20;;;;;;;1.47;1.13;;;27.50;43.90;;;;;;4995360;28;88139;-50
2023/07/03 03:26:48;;;;;;;2.30;1.33;;;27.50;43.80;;;;;;4999785;28;87773;-51
2023/07/03 03:29:16;;;;;;;2.10;1.00;;;27.50;43.80;;;;;;4999066;28;88598;-51
2023/07/03 03:31:45;;;;;;;1.97;1.30;;;27.50;43.80;;;;;;4999425;28;88192;-50
2023/07/03 03:34:13;;;;;;;2.80;1.20;;;27.50;43.80;;;;;;4998662;28;87744;-50
2023/07/03 03:36:41;;;;;;;1.90;1.10;;;27.50;43.70;;;;;;4999781;28;88218;-51
2023/07/03 03:39:10;;;;;;;2.20;1.53;;;27.50;43.70;;;;;;4986258;28;91708;-51
2023/07/03 03:41:39;;;;;;;1.37;0.90;;;27.50;43.70;;;;;;4984841;28;89328;-50
2023/07/03 03:44:08;;;;;;;1.87;1.00;;;27.50;43.60;;;;;;4998931;28;88587;-50
2023/07/03 03:46:36;;;;;;;3.27;1.37;;;27.50;43.60;;;;;;4999041;28;88442;-51
2023/07/03 03:49:04;;;;;;;5.13;1.70;;;27.50;43.50;;;;;;4998838;28;88509;-51
2023/07/03 03:51:33;;;;;;;2.20;1.30;;;27.50;43.60;;;;;;4998937;28;88417;-51
2023/07/03 03:54:01;;;;;;;5.70;1.53;;;27.40;43.50;;;;;;4989313;28;87911;-51
2023/07/03 03:56:29;;;;;;;1.33;1.13;;;27.40;44.10;;;;;;4979100;28;89019;-52
2023/07/03 03:58:59;;;;;;;3.80;1.83;;;27.50;43.50;;;;;;4979709;28;89703;-50
2023/07/03 04:01:28;;;;;;;4.87;1.70;;;27.40;43.40;;;;;;4978832;28;88366;-50
2023/07/03 04:03:56;;;;;;;1.47;1.33;;;27.40;43.40;;;;;;4981477;28;88210;-50
2023/07/03 04:06:26;;;;;;;3.50;1.77;;;27.40;43.30;;;;;;4992825;28;87918;-51
2023/07/03 04:08:58;;;;;;;3.30;1.70;;;27.40;43.30;;;;;;5001277;28;89833;-50
2023/07/03 04:11:28;;;;;;;2.77;1.90;;;27.40;43.30;;;;;;5001459;28;88013;-51
2023/07/03 04:13:56;;;;;;;4.27;1.83;;;27.40;43.30;;;;;;5001324;28;87717;-51
2023/07/03 04:16:26;;;;;;;1.87;1.67;;;27.40;43.30;;;;;;4996217;28;88724;-51
2023/07/03 04:18:54;;;;;;;2.53;1.83;;;27.40;43.30;;;;;;5001522;28;87432;-50
2023/07/03 04:21:23;;;;;;;2.20;1.50;;;27.40;43.30;;;;;;5001487;28;88060;-50
2023/07/03 04:23:51;;;;;;;2.33;1.50;;;27.40;43.30;;;;;;4997066;28;87547;-50
2023/07/03 04:26:20;;;;;;;2.63;1.53;;;27.40;43.30;;;;;;4981945;28;87649;-51
2023/07/03 04:28:48;;;;;;;4.60;1.70;;;27.40;43.30;;;;;;4981739;28;89573;-51
2023/07/03 04:31:16;;;;;;;1.87;1.43;;;27.40;43.30;;;;;;4991305;28;89113;-51
2023/07/03 04:33:46;;;;;;;2.23;1.43;;;27.40;43.20;;;;;;5001076;28;87376;-51
2023/07/03 04:36:17;;;;;;;3.57;1.60;;;27.40;43.20;;;;;;5001226;28;87635;-50
2023/07/03 04:38:45;;;;;;;3.07;1.80;;;27.40;43.20;;;;;;4988815;28;88566;-51
2023/07/03 04:41:14;;;;;;;2.63;1.80;;;27.40;43.20;;;;;;4985198;28;89626;-50
2023/07/03 04:43:48;;;;;;;2.33;1.47;;;27.40;43.20;;;;;;5001504;28;87621;-51
2023/07/03 04:46:18;;;;;;;2.57;1.60;;;27.40;43.20;;;;;;5000328;28;87494;-51
2023/07/03 04:48:47;;;;;;;2.37;1.90;;;27.30;43.10;;;;;;5001487;28;88562;-51
2023/07/03 04:51:16;;;;;;;3.47;2.33;;;27.30;43.00;;;;;;4999287;28;88136;-51
2023/07/03 04:53:44;;;;;;;3.07;2.27;;;27.40;43.10;;;;;;4991620;28;88837;-50
2023/07/03 04:56:12;;;;;;;2.60;2.10;;;27.40;43.00;;;;;;4980601;28;87964;-50
2023/07/03 04:58:41;;;;;;;3.53;2.10;;;27.40;43.00;;;;;;4981134;28;87592;-50
2023/07/03 05:01:11;;;;;;;2.63;2.33;;;27.40;42.90;;;;;;4980899;28;88319;-51
2023/07/03 05:03:40;;;;;;;4.57;2.57;;;27.40;42.90;;;;;;4981261;28;89107;-51
2023/07/03 05:06:10;;;;;;;5.17;2.20;;;27.40;42.90;;;;;;4981065;28;87650;-50
2023/07/03 05:08:38;;;;;;;4.03;2.50;;;27.40;42.90;;;;;;4999926;28;88574;-51
2023/07/03 05:11:07;;;;;;;4.73;2.67;;;27.40;42.80;;;;;;5000679;28;88337;-51
2023/07/03 05:13:35;;;;;;;3.87;2.47;;;27.40;42.80;;;;;;4982907;28;88369;-51
2023/07/03 05:16:04;;;;;;;4.73;2.80;;;27.40;42.80;;;;;;4981155;28;87639;-50
2023/07/03 05:18:32;;;;;;;3.67;2.90;;;27.40;42.80;;;;;;4997210;28;88571;-50
2023/07/03 05:21:00;;;;;;;6.33;3.47;;;27.40;42.70;;;;;;5000081;28;90293;-50
2023/07/03 05:23:30;;;;;;;5.60;3.00;;;27.40;42.70;;;;;;4998956;28;88860;-51
2023/07/03 05:25:58;;;;;;;5.47;3.13;;;27.40;42.70;;;;;;4993512;28;88902;-51
2023/07/03 05:28:26;;;;;;;5.03;3.03;;;27.40;42.70;;;;;;4989684;28;89854;-50
2023/07/03 05:30:55;;;;;;;5.27;3.40;;;27.40;42.70;;;;;;5000290;28;87382;-51
2023/07/03 05:33:24;;;;;;;4.70;2.93;;;27.40;42.70;;;;;;4986490;28;87738;-51
2023/07/03 05:35:52;;;;;;;3.67;2.37;;;27.40;42.60;;;;;;4990072;28;87696;-50
2023/07/03 05:38:21;;;;;;;3.67;2.37;;;27.40;42.60;;;;;;4992897;28;87402;-50
2023/07/03 05:40:51;;;;;;;3.83;2.87;;;27.40;42.70;;;;;;5000478;28;88103;-50
2023/07/03 05:43:19;;;;;;;3.87;2.63;;;27.40;42.70;;;;;;4989351;28;87661;-51
2023/07/03 05:45:48;;;;;;;4.50;2.97;;;27.40;42.70;;;;;;4986153;28;87999;-50
2023/07/03 05:48:17;;;;;;;5.63;2.83;;;27.40;42.70;;;;;;4990536;28;88855;-50
2023/07/03 05:50:45;;;;;;;4.07;3.00;;;27.40;42.70;;;;;;4980605;28;89003;-50
2023/07/03 05:53:14;;;;;;;3.70;2.50;;;27.40;42.70;;;;;;4990422;28;87998;-50
2023/07/03 05:55:43;;;;;;;6.57;2.90;;;27.40;42.70;;;;;;4980706;28;87616;-50
2023/07/03 05:58:13;;;;;;;5.80;2.60;;;27.40;42.70;;;;;;4987380;28;88357;-51
2023/07/03 06:00:41;;;;;;;2.83;2.10;;;27.40;42.70;;;;;;4998535;28;89104;-50
2023/07/03 06:03:11;;;;;;;4.40;2.33;;;27.30;42.60;;;;;;4991404;28;88959;-50
2023/07/03 06:05:39;;;;;;;5.13;2.43;;;27.40;42.70;;;;;;5000783;28;87674;-50
2023/07/03 06:08:08;;;;;;;3.43;2.80;;;27.40;42.70;;;;;;4997994;28;88532;-50
2023/07/03 06:10:36;;;;;;;3.60;2.57;;;27.40;42.60;;;;;;4992858;28;89250;-50
2023/07/03 06:13:05;;;;;;;2.57;1.73;;;27.40;42.60;;;;;;4987464;28;89851;-50
2023/07/03 06:15:35;;;;;;;6.23;2.13;;;27.40;42.60;;;;;;4999892;28;87709;-50
2023/07/03 06:18:03;;;;;;;4.07;2.23;;;27.40;42.60;;;;;;4986449;28;87417;-50
2023/07/03 06:20:33;;;;;;;2.37;2.00;;;27.40;42.60;;;;;;4991905;28;88805;-50
2023/07/03 06:23:01;;;;;;;4.97;2.13;;;27.40;42.50;;;;;;4999598;28;88947;-50
2023/07/03 06:25:29;;;;;;;3.03;2.00;;;27.40;42.50;;;;;;4996605;28;87776;-50
2023/07/03 06:27:58;;;;;;;3.17;2.00;;;27.40;42.50;;;;;;4983518;28;89723;-50
2023/07/03 06:30:26;;;;;;;4.10;2.23;;;27.50;42.50;;;;;;4984403;28;88252;-51
2023/07/03 06:32:56;;;;;;;1.60;1.50;;;27.50;42.40;;;;;;4983243;28;87848;-50
2023/07/03 06:35:24;;;;;;;3.30;1.80;;;27.50;42.40;;;;;;4982915;28;88762;-50
2023/07/03 06:37:53;;;;;;;3.37;1.53;;;27.50;42.40;;;;;;4989468;28;89553;-50
2023/07/03 06:40:21;;;;;;;1.63;1.37;;;27.50;42.40;;;;;;4989888;28;89232;-51
2023/07/03 06:42:49;;;;;;;2.40;1.67;;;27.50;42.30;;;;;;4987330;28;87941;-50
2023/07/03 06:45:18;;;;;;;1.87;1.40;;;27.60;42.30;;;;;;4989422;28;89186;-50
2023/07/03 06:47:46;;;;;;;4.00;1.23;;;27.60;42.20;;;;;;4991602;28;88687;-51
2023/07/03 06:50:16;;;;;;;2.30;1.40;;;27.70;42.20;;;;;;4996020;28;88103;-51
2023/07/03 06:52:46;;;;;;;1.87;1.47;;;27.70;42.20;;;;;;4988011;28;87773;-51
2023/07/03 06:55:15;;;;;;;3.20;1.67;;;27.70;42.20;;;;;;4983205;28;87597;-51
2023/07/03 06:57:43;;;;;;;1.83;1.33;;;27.70;42.10;;;;;;4986107;28;89553;-52
2023/07/03 07:00:13;;;;;;;2.43;1.50;;;27.80;42.20;;;;;;5002594;28;88893;-52
2023/07/03 07:02:41;;;;;;;1.93;1.47;;;27.80;42.20;;;;;;5000962;28;90209;-52
2023/07/03 07:05:10;;;;;;;3.10;1.23;;;27.80;42.20;;;;;;4995083;28;87689;-52
2023/07/03 07:07:40;;;;;;;2.50;1.07;;;27.80;42.20;;;;;;4992241;28;88620;-52
2023/07/03 07:10:08;;;;;;;1.80;1.23;;;27.80;42.30;;;;;;4982918;28;88386;-52
2023/07/03 07:12:37;;;;;;;2.53;1.07;;;27.80;42.30;;;;;;4982664;28;89020;-52
2023/07/03 07:15:06;;;;;;;1.20;1.07;;;27.80;42.40;;;;;;4983175;28;87673;-52
2023/07/03 07:17:34;;;;;;;2.77;1.27;;;27.80;42.40;;;;;;4982347;28;89164;-52
2023/07/03 07:20:09;;;;;;;2.97;1.17;;;27.80;42.40;;;;;;4982799;28;88283;-52
2023/07/03 07:22:39;;;;;;;1.60;0.97;;;27.90;42.50;;;;;;4984699;28;88719;-51
2023/07/03 07:25:08;;;;;;;2.27;1.17;;;27.90;42.50;;;;;;4995828;28;87943;-52
2023/07/03 07:27:36;;;;;;;1.57;0.87;;;27.90;42.50;;;;;;4986697;28;89829;-52
2023/07/03 07:30:06;;;;;;;1.70;1.07;;;27.90;42.50;;;;;;4982513;28;88064;-52
2023/07/03 07:32:34;;;;;;;1.20;0.90;;;27.90;42.50;;;;;;4994691;28;87864;-52
2023/07/03 07:35:02;;;;;;;3.00;1.07;;;28.00;42.70;;;;;;4982837;28;87666;-51
2023/07/03 07:37:31;;;;;;;1.63;0.93;;;28.00;42.70;;;;;;4992302;28;87389;-52
2023/07/03 07:40:00;;;;;;;0.83;0.67;;;28.00;42.60;;;;;;5001364;28;87176;-52
2023/07/03 07:42:31;;;;;;;2.23;0.93;;;28.00;42.70;;;;;;4988664;28;87884;-52
2023/07/03 07:44:59;;;;;;;1.60;0.80;;;28.00;42.60;;;;;;4984601;28;87326;-52
2023/07/03 07:47:28;;;;;;;1.50;0.77;;;28.00;42.70;;;;;;4983041;28;88539;-52
2023/07/03 07:49:58;;;;;;;1.17;0.93;;;28.00;42.70;;;;;;4981219;28;88971;-52
2023/07/03 07:52:26;;;;;;;1.17;0.77;;;28.00;42.70;;;;;;4983967;28;89954;-52
2023/07/03 07:54:55;;;;;;;2.10;1.07;;;28.00;42.70;;;;;;4998847;28;87768;-52
2023/07/03 07:57:24;;;;;;;1.07;0.80;;;28.00;42.70;;;;;;4993016;28;87558;-52
2023/07/03 07:59:53;;;;;;;3.40;0.90;;;28.00;42.70;;;;;;4982810;28;88955;-52
2023/07/03 08:02:21;;;;;;;1.73;0.70;;;28.00;42.70;;;;;;4986020;28;89116;-52
2023/07/03 08:04:49;;;;;;;0.93;0.87;;;27.90;42.60;;;;;;4997841;28;87644;-52
2023/07/03 08:07:18;;;;;;;1.00;0.80;;;28.00;42.70;;;;;;4998347;28;88624;-52
2023/07/03 08:09:46;;;;;;;1.27;0.93;;;28.00;42.70;;;;;;4981095;28;88678;-52
2023/07/03 08:12:14;;;;;;;2.40;0.77;;;28.00;42.60;;;;;;4990990;28;87518;-52
2023/07/03 08:14:44;;;;;;;0.90;0.77;;;28.00;43.30;;;;;;4980960;28;88066;-52
2023/07/03 08:17:12;;;;;;;1.03;0.90;;;28.00;42.60;;;;;;4984589;28;89513;-52
2023/07/03 08:19:41;;;;;;;1.60;0.97;;;28.00;42.60;;;;;;4998085;28;89250;-52
2023/07/03 08:22:09;;;;;;;1.40;0.73;;;28.00;42.60;;;;;;4994196;28;88013;-54
2023/07/03 08:24:37;;;;;;;2.33;1.00;;;28.00;42.60;;;;;;4980705;28;87858;-53
2023/07/03 08:27:06;;;;;;;2.37;1.20;;;28.00;42.60;;;;;;4983452;28;88367;-52
2023/07/03 08:29:34;;;;;;;2.90;1.80;;;28.00;42.60;;;;;;4993849;28;89695;-52
2023/07/03 08:32:05;;;;;;;4.37;1.80;;;28.00;42.60;;;;;;4998886;28;87653;-52
2023/07/03 08:34:33;;;;;;;2.90;1.50;;;28.00;42.50;;;;;;4997577;28;88310;-52
2023/07/03 08:37:01;;;;;;;3.73;1.30;;;28.00;42.50;;;;;;4990185;28;88500;-52
2023/07/03 08:39:32;;;;;;;3.77;1.77;;;28.10;42.50;;;;;;4985308;28;88809;-52
2023/07/03 08:42:02;;;;;;;4.17;1.80;;;28.10;42.50;;;;;;4993350;28;89761;-52
2023/07/03 08:44:31;;;;;;;4.77;2.13;;;28.10;42.50;;;;;;4981917;28;87636;-52
2023/07/03 08:46:59;;;;;;;6.03;2.17;;;28.10;42.40;;;;;;4989367;28;88548;-52
2023/07/03 08:49:40;;;;;;;3.10;2.00;;;28.00;42.40;;;;;;4991937;28;88012;-52
2023/07/03 08:52:09;;;;;;;2.90;2.00;;;28.00;42.40;;;;;;4988722;28;88041;-52
2023/07/03 08:54:38;;;;;;;3.13;2.53;;;28.00;42.40;;;;;;4981415;28;87394;-52
2023/07/03 08:57:06;;;;;;;7.37;3.80;;;28.00;42.40;;;;;;4981103;28;88387;-52
2023/07/03 08:59:35;;;;;;;4.93;3.03;;;28.00;42.40;;;;;;4980890;28;88281;-52
2023/07/03 09:02:08;;;;;;;4.20;3.00;;;28.00;42.40;;;;;;4982679;28;87881;-53
2023/07/03 09:04:47;;;;;;;6.97;3.47;;;28.00;42.40;;;;;;4989551;28;87683;-52
2023/07/03 09:07:18;;;;;;;4.07;3.17;;;27.90;42.30;;;;;;4996216;28;88541;-52
2023/07/03 09:09:48;;;;;;;5.27;3.27;;;28.00;42.30;;;;;;4980987;28;88048;-52
2023/07/03 09:12:20;;;;;;;5.73;3.30;;;28.00;42.30;;;;;;4980549;28;87693;-52
2023/07/03 09:14:51;;;;;;;6.47;3.30;;;27.90;42.20;;;;;;4981064;28;87525;-52
2023/07/03 09:17:20;;;;;;;6.10;3.00;;;27.90;42.10;;;;;;4980772;28;88833;-52
2023/07/03 09:19:50;;;;;;;10.27;3.60;;;27.90;42.10;;;;;;4988103;28;88338;-51
2023/07/03 09:22:25;;;;;;;4.50;2.83;;;27.90;42.10;;;;;;4995660;28;88012;-52
2023/07/03 09:24:54;;;;;;;5.03;3.13;;;28.00;42.20;;;;;;4988033;28;87498;-52
2023/07/03 09:27:24;;;;;;;4.30;3.20;;;28.00;42.10;;;;;;4988176;28;87986;-52
2023/07/03 09:29:53;;;;;;;4.30;3.03;;;28.00;42.10;;;;;;4984376;28;90082;-52
2023/07/03 09:32:26;;;;;;;3.57;2.67;;;27.90;42.00;;;;;;4990872;28;89809;-52
2023/07/03 09:35:05;;;;;;;4.57;2.70;;;27.90;42.00;;;;;;4981010;28;87299;-52
2023/07/03 09:37:33;;;;;;;4.63;3.03;;;28.00;42.10;;;;;;4988115;28;87519;-52
2023/07/03 09:40:05;;;;;;;6.77;3.77;;;28.00;42.10;;;;;;4984633;28;88066;-52
2023/07/03 09:42:33;;;;;;;5.83;3.50;;;28.00;42.10;;;;;;4980547;28;88716;-52
2023/07/03 09:45:03;;;;;;;4.83;3.00;;;28.00;42.10;;;;;;4987143;28;87630;-52
2023/07/03 09:47:34;;;;;;;6.93;3.70;;;28.00;42.10;;;;;;4996923;28;88844;-52
2023/07/03 09:50:05;;;;;;;4.77;3.00;;;28.00;42.10;;;;;;4981974;28;87429;-53
2023/07/03 09:52:34;;;;;;;4.20;3.10;;;28.00;42.10;;;;;;4999901;28;88777;-53
2023/07/03 09:55:03;;;;;;;6.07;3.17;;;28.00;42.10;;;;;;4994026;28;89683;-53
2023/07/03 09:57:34;;;;;;;4.77;2.27;;;28.00;42.10;;;;;;4996301;28;89912;-55
2023/07/03 10:00:10;;;;;;;3.03;2.17;;;27.90;42.00;;;;;;4998237;28;88208;-52
2023/07/03 10:02:39;;;;;;;2.47;1.90;;;28.00;42.00;;;;;;4980498;28;88940;-50
2023/07/03 10:05:15;;;;;;;4.90;2.03;;;27.90;41.90;;;;;;4991015;28;87527;-50
2023/07/03 10:07:47;;;;;;;3.73;1.97;;;27.90;41.90;;;;;;4979614;28;89154;-50
2023/07/03 10:10:19;;;;;;;3.33;1.53;;;27.90;41.90;;;;;;4980297;28;88727;-50
2023/07/03 10:12:54;;;;;;;3.17;1.83;;;27.90;41.80;;;;;;5000194;28;87809;-50
2023/07/03 10:15:24;;;;;;;2.93;1.70;;;27.90;41.80;;;;;;4995049;28;87630;-50
2023/07/03 10:17:54;;;;;;;2.67;1.77;;;27.90;41.70;;;;;;4987688;28;88625;-50
2023/07/03 10:20:25;;;;;;;2.60;1.47;;;27.90;41.70;;;;;;4988799;28;89018;-50
2023/07/03 10:22:56;;;;;;;5.97;1.90;;;27.90;41.70;;;;;;4999953;28;89060;-50
2023/07/03 10:25:26;;;;;;;7.67;1.93;;;27.90;41.70;;;;;;4999761;28;87778;-51
2023/07/03 10:27:57;;;;;;;2.93;1.33;;;27.90;41.70;;;;;;4980374;28;88456;-51
2023/07/03 10:30:26;;;;;;;5.00;2.17;;;27.90;41.70;;;;;;4991800;28;89067;-51
2023/07/03 10:32:56;;;;;;;1.83;1.30;;;27.90;41.80;;;;;;4980438;28;87441;-51
2023/07/03 10:35:28;;;;;;;7.70;1.83;;;28.00;41.90;;;;;;4984005;28;88218;-50
2023/07/03 10:38:00;;;;;;;5.17;1.67;;;28.00;42.00;;;;;;4986798;28;88569;-50
2023/07/03 10:40:30;;;;;;;2.83;1.37;;;28.00;42.00;;;;;;4989909;28;88069;-50
2023/07/03 10:43:00;;;;;;;1.10;1.10;;;28.00;42.00;;;;;;4990109;28;87368;-50
2023/07/03 10:45:28;;;;;;;3.13;1.80;;;28.00;42.00;;;;;;4979692;28;87831;-50
2023/07/03 10:47:59;;;;;;;2.40;1.23;;;28.00;42.00;;;;;;4985326;28;88464;-52
2023/07/03 10:50:31;;;;;;;5.00;1.90;;;28.00;42.00;;;;;;4999419;28;87663;-52
2023/07/03 10:53:05;;;;;;;28.40;11.53;;;28.00;42.00;;;;;;4991163;28;87436;-51
2023/07/03 10:55:37;;;;;;;281.03;109.13;;;28.10;42.10;;;;;;4994662;28;87671;-50
2023/07/03 10:58:09;;;;;;;288.40;117.63;;;28.10;42.00;;;;;;4981492;28;87430;-50
2023/07/03 11:00:41;;;;;;;189.00;78.03;;;28.10;41.90;;;;;;4984932;28;88975;-50
2023/07/03 11:03:13;;;;;;;163.23;67.90;;;28.10;41.70;;;;;;4982495;28;88081;-51
2023/07/03 11:05:44;;;;;;;121.53;48.80;;;28.20;41.60;;;;;;4982161;28;87566;-51
2023/07/03 11:08:16;;;;;;;95.13;41.37;;;28.20;41.50;;;;;;4983672;28;88952;-51
2023/07/03 11:10:46;;;;;;;90.10;35.30;;;28.10;41.40;;;;;;4997061;28;90130;-50
2023/07/03 11:13:17;;;;;;;67.87;26.67;;;28.20;41.30;;;;;;5000207;28;90424;-50
2023/07/03 11:15:49;;;;;;;44.60;22.60;;;28.20;41.10;;;;;;4996490;28;87337;-50
2023/07/03 11:18:29;;;;;;;31.50;16.30;;;28.20;41.00;;;;;;4989386;28;88727;-50
2023/07/03 11:21:08;;;;;;;26.10;13.73;;;28.10;41.40;;;;;;4999927;28;88869;-51
2023/07/03 11:23:44;;;;;;;25.60;11.50;;;28.10;40.60;;;;;;4988126;28;87845;-53
2023/07/03 11:26:17;;;;;;;28.50;12.23;;;28.10;40.50;;;;;;5002053;28;87335;-52
2023/07/03 11:28:50;;;;;;;24.80;10.73;;;28.10;40.50;;;;;;5000148;28;88152;-51
2023/07/03 11:31:18;;;;;;;28.47;11.87;;;28.20;40.60;;;;;;5001175;28;88580;-51
2023/07/03 11:33:46;;;;;;;22.00;9.87;;;28.20;40.70;;;;;;4999644;28;88902;-51
2023/07/03 11:36:41;;;;;;;26.73;10.80;;;28.20;40.80;;;;;;4999896;28;87823;-51
2023/07/03 11:39:24;;;;;;;15.73;8.63;;;28.30;41.70;;;;;;4986628;28;89614;-51
2023/07/03 11:42:10;;;;;;;26.03;9.43;;;28.30;41.10;;;;;;4990318;28;87972;-51
2023/07/03 11:44:42;;;;;;;19.50;9.50;;;28.40;41.30;;;;;;4995939;28;88909;-51
2023/07/03 11:47:13;;;;;;;21.00;10.90;;;28.40;41.40;;;;;;4997139;28;87745;-51
2023/07/03 11:49:44;;;;;;;19.57;9.70;;;28.40;41.40;;;;;;4986134;28;88655;-51
2023/07/03 11:52:14;;;;;;;18.70;9.17;;;28.50;41.50;;;;;;4984764;28;88305;-51
2023/07/03 11:54:42;;;;;;;20.10;9.00;;;28.50;41.60;;;;;;4994682;28;87479;-54
2023/07/03 11:57:11;;;;;;;20.17;7.67;;;28.50;41.60;;;;;;4990232;28;87392;-51
2023/07/03 11:59:39;;;;;;;13.97;5.87;;;28.50;41.80;;;;;;4981413;28;89876;-51
2023/07/03 12:02:44;;;;;;;12.17;5.07;;;28.50;41.80;;;;;;4988933;28;88994;-51
2023/07/03 12:05:46;;;;;;;11.63;5.07;;;28.50;41.90;;;;;;4995746;28;88980;-51
2023/07/03 12:08:44;;;;;;;9.30;3.33;;;28.50;41.90;;;;;;4998036;28;87552;-51
2023/07/03 12:11:14;;;;;;;7.53;3.50;;;28.40;41.90;;;;;;4982304;28;88524;-52
2023/07/03 12:13:53;;;;;;;7.87;3.17;;;28.40;41.80;;;;;;4999343;28;88081;-51
2023/07/03 12:16:24;;;;;;;6.37;3.20;;;28.40;41.70;;;;;;4995251;28;87843;-51
2023/07/03 12:19:06;;;;;;;4.77;2.40;;;28.40;41.60;;;;;;4982003;28;87511;-51
2023/07/03 12:21:43;;;;;;;7.07;2.60;;;28.40;41.50;;;;;;4984847;28;88689;-51
2023/07/03 12:24:24;;;;;;;3.77;2.13;;;28.40;41.40;;;;;;5000275;28;87867;-53
2023/07/03 12:26:54;;;;;;;4.03;2.40;;;28.40;41.30;;;;;;4981732;28;87810;-52
2023/07/03 12:29:22;;;;;;;4.23;1.87;;;28.40;41.20;;;;;;4980647;28;88478;-51
2023/07/03 12:31:58;;;;;;;6.57;2.53;;;28.40;41.30;;;;;;4985254;28;88555;-51
2023/07/03 12:34:26;;;;;;;5.70;1.63;;;28.40;41.30;;;;;;4999432;28;88202;-52
2023/07/03 12:36:59;;;;;;;4.50;1.73;;;28.40;41.30;;;;;;4995805;28;87715;-51
2023/07/03 12:39:31;;;;;;;1.40;1.13;;;28.40;41.30;;;;;;4981251;28;87552;-51
2023/07/03 12:42:11;;;;;;;3.50;1.10;;;28.40;41.30;;;;;;4998040;28;88668;-51
2023/07/03 12:44:39;;;;;;;4.20;1.73;;;28.40;41.20;;;;;;5001072;28;87912;-53
2023/07/03 12:47:11;;;;;;;3.87;1.60;;;28.30;41.10;;;;;;4996559;28;87784;-51
2023/07/03 12:49:55;;;;;;;2.33;1.30;;;28.30;41.20;;;;;;4984129;28;87498;-51
2023/07/03 12:52:24;;;;;;;4.03;1.20;;;28.30;41.20;;;;;;4981225;28;89734;-51
2023/07/03 12:54:54;;;;;;;2.13;1.10;;;28.30;41.20;;;;;;4980716;28;88021;-52
2023/07/03 12:57:41;;;;;;;3.33;1.40;;;28.30;41.10;;;;;;4989107;28;88695;-51
2023/07/03 13:00:16;;;;;;;3.40;0.97;;;28.20;40.90;;;;;;4996522;28;88099;-51